sensor_id;sensor_type;location;lat;lon;timestamp;P1;durP1;ratioP1;P2;durP2;ratioP2
18340;SDS011;9296;48.084;16.352;2023-02-01T00:00:28;1.88;;;1.27;;
18340;SDS011;9296;48.084;16.352;2023-02-01T00:05:59;2.40;;;1.30;;
18340;SDS011;9296;48.084;16.352;2023-02-01T00:08:27;3.28;;;1.63;;
18340;SDS011;9296;48.084;16.352;2023-02-01T00:10:58;1.67;;;1.40;;
18340;SDS011;9296;48.084;16.352;2023-02-01T00:13:27;1.52;;;1.30;;
18340;SDS011;9296;48.084;16.352;2023-02-01T00:18:58;2.20;;;1.30;;
18340;SDS011;9296;48.084;16.352;2023-02-01T00:21:26;2.10;;;1.30;;
18340;SDS011;9296;48.084;16.352;2023-02-01T00:23:55;1.98;;;1.30;;
18340;SDS011;9296;48.084;16.352;2023-02-01T00:26:24;1.92;;;1.35;;
18340;SDS011;9296;48.084;16.352;2023-02-01T00:28:52;2.08;;;1.30;;
18340;SDS011;9296;48.084;16.352;2023-02-01T00:31:20;1.70;;;1.40;;
18340;SDS011;9296;48.084;16.352;2023-02-01T00:33:47;2.85;;;1.55;;
18340;SDS011;9296;48.084;16.352;2023-02-01T00:36:15;4.20;;;1.92;;
18340;SDS011;9296;48.084;16.352;2023-02-01T00:38:43;1.90;;;1.55;;
18340;SDS011;9296;48.084;16.352;2023-02-01T00:41:13;2.42;;;1.60;;
18340;SDS011;9296;48.084;16.352;2023-02-01T00:43:41;3.20;;;1.80;;
18340;SDS011;9296;48.084;16.352;2023-02-01T00:46:14;2.92;;;1.80;;
18340;SDS011;9296;48.084;16.352;2023-02-01T00:48:42;4.32;;;1.67;;
18340;SDS011;9296;48.084;16.352;2023-02-01T00:51:10;2.53;;;1.73;;
18340;SDS011;9296;48.084;16.352;2023-02-01T00:53:37;1.92;;;1.58;;
18340;SDS011;9296;48.084;16.352;2023-02-01T00:56:05;2.50;;;2.00;;
18340;SDS011;9296;48.084;16.352;2023-02-01T00:58:34;2.80;;;2.13;;
18340;SDS011;9296;48.084;16.352;2023-02-01T01:01:02;2.90;;;2.25;;
18340;SDS011;9296;48.084;16.352;2023-02-01T01:03:29;3.88;;;2.00;;
18340;SDS011;9296;48.084;16.352;2023-02-01T01:05:58;3.47;;;2.00;;
18340;SDS011;9296;48.084;16.352;2023-02-01T01:08:26;3.17;;;2.08;;
18340;SDS011;9296;48.084;16.352;2023-02-01T01:10:53;4.53;;;2.10;;
18340;SDS011;9296;48.084;16.352;2023-02-01T01:13:21;3.30;;;1.92;;
18340;SDS011;9296;48.084;16.352;2023-02-01T01:15:49;2.47;;;1.90;;
18340;SDS011;9296;48.084;16.352;2023-02-01T01:21:20;4.38;;;2.10;;
18340;SDS011;9296;48.084;16.352;2023-02-01T01:23:47;2.58;;;1.70;;
18340;SDS011;9296;48.084;16.352;2023-02-01T01:26:15;1.90;;;1.70;;
18340;SDS011;9296;48.084;16.352;2023-02-01T01:28:42;2.63;;;1.77;;
18340;SDS011;9296;48.084;16.352;2023-02-01T01:31:12;2.47;;;1.52;;
18340;SDS011;9296;48.084;16.352;2023-02-01T01:33:39;2.28;;;1.70;;
18340;SDS011;9296;48.084;16.352;2023-02-01T01:36:09;2.92;;;1.90;;
18340;SDS011;9296;48.084;16.352;2023-02-01T01:38:37;3.67;;;2.03;;
18340;SDS011;9296;48.084;16.352;2023-02-01T01:41:04;3.10;;;1.70;;
18340;SDS011;9296;48.084;16.352;2023-02-01T01:43:45;2.80;;;1.80;;
18340;SDS011;9296;48.084;16.352;2023-02-01T01:46:16;2.00;;;1.80;;
18340;SDS011;9296;48.084;16.352;2023-02-01T01:48:44;2.58;;;1.98;;
18340;SDS011;9296;48.084;16.352;2023-02-01T01:51:12;2.50;;;1.80;;
18340;SDS011;9296;48.084;16.352;2023-02-01T01:53:42;1.98;;;1.70;;
18340;SDS011;9296;48.084;16.352;2023-02-01T01:56:10;2.17;;;1.60;;
18340;SDS011;9296;48.084;16.352;2023-02-01T01:58:37;2.05;;;1.55;;
18340;SDS011;9296;48.084;16.352;2023-02-01T02:01:05;1.95;;;1.60;;
18340;SDS011;9296;48.084;16.352;2023-02-01T02:06:40;2.30;;;1.60;;
18340;SDS011;9296;48.084;16.352;2023-02-01T02:09:10;1.70;;;1.42;;
18340;SDS011;9296;48.084;16.352;2023-02-01T02:11:37;1.83;;;1.42;;
18340;SDS011;9296;48.084;16.352;2023-02-01T02:14:05;1.85;;;1.20;;
18340;SDS011;9296;48.084;16.352;2023-02-01T02:25:28;2.85;;;1.40;;
18340;SDS011;9296;48.084;16.352;2023-02-01T02:27:59;1.90;;;1.50;;
18340;SDS011;9296;48.084;16.352;2023-02-01T02:36:26;2.20;;;1.33;;
18340;SDS011;9296;48.084;16.352;2023-02-01T02:38:58;2.58;;;1.27;;
18340;SDS011;9296;48.084;16.352;2023-02-01T02:41:28;1.90;;;1.35;;
18340;SDS011;9296;48.084;16.352;2023-02-01T02:44:18;1.73;;;1.33;;
18340;SDS011;9296;48.084;16.352;2023-02-01T02:53:15;2.10;;;1.55;;
18340;SDS011;9296;48.084;16.352;2023-02-01T02:55:59;2.25;;;1.58;;
18340;SDS011;9296;48.084;16.352;2023-02-01T02:58:45;2.15;;;1.55;;
18340;SDS011;9296;48.084;16.352;2023-02-01T03:04:33;2.28;;;1.45;;
18340;SDS011;9296;48.084;16.352;2023-02-01T03:07:10;2.45;;;1.70;;
18340;SDS011;9296;48.084;16.352;2023-02-01T03:09:39;2.75;;;1.85;;
18340;SDS011;9296;48.084;16.352;2023-02-01T03:12:09;2.70;;;1.58;;
18340;SDS011;9296;48.084;16.352;2023-02-01T03:14:56;2.42;;;1.80;;
18340;SDS011;9296;48.084;16.352;2023-02-01T03:23:16;2.78;;;1.92;;
18340;SDS011;9296;48.084;16.352;2023-02-01T03:25:45;2.72;;;2.00;;
18340;SDS011;9296;48.084;16.352;2023-02-01T03:28:14;3.10;;;1.70;;
18340;SDS011;9296;48.084;16.352;2023-02-01T03:30:44;3.80;;;2.10;;
18340;SDS011;9296;48.084;16.352;2023-02-01T03:36:18;3.92;;;2.20;;
18340;SDS011;9296;48.084;16.352;2023-02-01T03:38:49;3.97;;;2.10;;
18340;SDS011;9296;48.084;16.352;2023-02-01T03:41:20;2.72;;;2.00;;
18340;SDS011;9296;48.084;16.352;2023-02-01T03:43:51;3.67;;;2.15;;
18340;SDS011;9296;48.084;16.352;2023-02-01T03:46:21;3.55;;;2.22;;
18340;SDS011;9296;48.084;16.352;2023-02-01T03:51:53;2.63;;;2.30;;
18340;SDS011;9296;48.084;16.352;2023-02-01T03:54:21;3.58;;;2.33;;
18340;SDS011;9296;48.084;16.352;2023-02-01T03:56:50;4.20;;;2.22;;
18340;SDS011;9296;48.084;16.352;2023-02-01T03:59:19;3.42;;;2.40;;
18340;SDS011;9296;48.084;16.352;2023-02-01T04:04:41;4.75;;;2.38;;
18340;SDS011;9296;48.084;16.352;2023-02-01T04:07:08;4.32;;;2.25;;
18340;SDS011;9296;48.084;16.352;2023-02-01T04:09:35;2.83;;;2.40;;
18340;SDS011;9296;48.084;16.352;2023-02-01T04:12:04;4.15;;;2.60;;
18340;SDS011;9296;48.084;16.352;2023-02-01T04:14:31;3.45;;;2.50;;
18340;SDS011;9296;48.084;16.352;2023-02-01T04:16:58;3.28;;;2.58;;
18340;SDS011;9296;48.084;16.352;2023-02-01T04:19:26;4.97;;;2.90;;
18340;SDS011;9296;48.084;16.352;2023-02-01T04:21:53;4.70;;;2.80;;
18340;SDS011;9296;48.084;16.352;2023-02-01T04:24:20;3.42;;;2.70;;
18340;SDS011;9296;48.084;16.352;2023-02-01T04:26:47;5.40;;;2.60;;
18340;SDS011;9296;48.084;16.352;2023-02-01T04:29:16;6.40;;;3.08;;
18340;SDS011;9296;48.084;16.352;2023-02-01T04:37:51;5.55;;;2.95;;
18340;SDS011;9296;48.084;16.352;2023-02-01T04:40:18;5.07;;;2.83;;
18340;SDS011;9296;48.084;16.352;2023-02-01T04:42:45;3.70;;;2.53;;
18340;SDS011;9296;48.084;16.352;2023-02-01T04:45:14;4.40;;;2.45;;
18340;SDS011;9296;48.084;16.352;2023-02-01T04:50:45;3.13;;;2.28;;
18340;SDS011;9296;48.084;16.352;2023-02-01T04:53:13;3.92;;;2.67;;
18340;SDS011;9296;48.084;16.352;2023-02-01T04:55:40;4.10;;;2.28;;
18340;SDS011;9296;48.084;16.352;2023-02-01T04:58:08;2.80;;;2.47;;
18340;SDS011;9296;48.084;16.352;2023-02-01T05:00:36;3.38;;;2.30;;
18340;SDS011;9296;48.084;16.352;2023-02-01T05:03:04;3.15;;;2.00;;
18340;SDS011;9296;48.084;16.352;2023-02-01T05:05:31;3.63;;;2.67;;
18340;SDS011;9296;48.084;16.352;2023-02-01T05:07:58;2.30;;;2.10;;
18340;SDS011;9296;48.084;16.352;2023-02-01T05:10:25;3.17;;;2.42;;
18340;SDS011;9296;48.084;16.352;2023-02-01T05:12:52;3.80;;;2.50;;
18340;SDS011;9296;48.084;16.352;2023-02-01T05:15:39;3.35;;;2.50;;
18340;SDS011;9296;48.084;16.352;2023-02-01T05:21:21;3.08;;;2.40;;
18340;SDS011;9296;48.084;16.352;2023-02-01T05:23:49;3.30;;;2.38;;
18340;SDS011;9296;48.084;16.352;2023-02-01T05:26:34;3.35;;;2.47;;
18340;SDS011;9296;48.084;16.352;2023-02-01T05:29:01;3.42;;;2.53;;
18340;SDS011;9296;48.084;16.352;2023-02-01T05:31:29;4.63;;;2.67;;
18340;SDS011;9296;48.084;16.352;2023-02-01T05:37:00;3.90;;;2.90;;
18340;SDS011;9296;48.084;16.352;2023-02-01T05:39:27;4.40;;;2.50;;
18340;SDS011;9296;48.084;16.352;2023-02-01T05:41:55;4.22;;;2.38;;
18340;SDS011;9296;48.084;16.352;2023-02-01T05:44:22;4.78;;;2.72;;
18340;SDS011;9296;48.084;16.352;2023-02-01T05:46:51;3.80;;;2.75;;
18340;SDS011;9296;48.084;16.352;2023-02-01T05:52:21;3.58;;;2.63;;
18340;SDS011;9296;48.084;16.352;2023-02-01T05:54:49;3.88;;;2.65;;
18340;SDS011;9296;48.084;16.352;2023-02-01T05:57:17;4.55;;;2.53;;
18340;SDS011;9296;48.084;16.352;2023-02-01T05:59:44;3.17;;;2.35;;
18340;SDS011;9296;48.084;16.352;2023-02-01T06:05:12;3.25;;;2.53;;
18340;SDS011;9296;48.084;16.352;2023-02-01T06:07:39;4.10;;;3.03;;
18340;SDS011;9296;48.084;16.352;2023-02-01T06:10:07;3.42;;;2.70;;
18340;SDS011;9296;48.084;16.352;2023-02-01T06:12:34;4.18;;;2.78;;
18340;SDS011;9296;48.084;16.352;2023-02-01T06:15:02;3.78;;;2.78;;
18340;SDS011;9296;48.084;16.352;2023-02-01T06:17:29;3.65;;;2.42;;
18340;SDS011;9296;48.084;16.352;2023-02-01T06:19:56;3.70;;;2.92;;
18340;SDS011;9296;48.084;16.352;2023-02-01T06:22:25;4.88;;;2.83;;
18340;SDS011;9296;48.084;16.352;2023-02-01T06:24:52;3.97;;;3.03;;
18340;SDS011;9296;48.084;16.352;2023-02-01T06:27:19;4.28;;;2.80;;
18340;SDS011;9296;48.084;16.352;2023-02-01T06:29:46;4.50;;;3.08;;
18340;SDS011;9296;48.084;16.352;2023-02-01T06:35:15;4.75;;;2.63;;
18340;SDS011;9296;48.084;16.352;2023-02-01T06:37:44;3.88;;;2.90;;
18340;SDS011;9296;48.084;16.352;2023-02-01T06:40:11;5.70;;;2.83;;
18340;SDS011;9296;48.084;16.352;2023-02-01T06:42:38;4.10;;;2.63;;
18340;SDS011;9296;48.084;16.352;2023-02-01T06:45:06;7.50;;;4.20;;
18340;SDS011;9296;48.084;16.352;2023-02-01T06:53:42;5.60;;;2.70;;
18340;SDS011;9296;48.084;16.352;2023-02-01T06:56:09;3.78;;;2.83;;
18340;SDS011;9296;48.084;16.352;2023-02-01T06:58:36;4.45;;;3.00;;
18340;SDS011;9296;48.084;16.352;2023-02-01T07:01:04;3.88;;;2.85;;
18340;SDS011;9296;48.084;16.352;2023-02-01T07:06:36;3.70;;;2.70;;
18340;SDS011;9296;48.084;16.352;2023-02-01T07:09:04;3.72;;;2.80;;
18340;SDS011;9296;48.084;16.352;2023-02-01T07:11:32;3.80;;;2.38;;
18340;SDS011;9296;48.084;16.352;2023-02-01T07:13:59;3.97;;;2.63;;
18340;SDS011;9296;48.084;16.352;2023-02-01T07:16:26;3.20;;;2.50;;
18340;SDS011;9296;48.084;16.352;2023-02-01T07:21:57;2.60;;;2.00;;
18340;SDS011;9296;48.084;16.352;2023-02-01T07:24:26;4.68;;;2.35;;
18340;SDS011;9296;48.084;16.352;2023-02-01T07:26:53;2.83;;;2.35;;
18340;SDS011;9296;48.084;16.352;2023-02-01T07:29:20;3.10;;;2.17;;
18340;SDS011;9296;48.084;16.352;2023-02-01T07:31:47;3.35;;;2.20;;
18340;SDS011;9296;48.084;16.352;2023-02-01T07:34:15;6.93;;;2.42;;
18340;SDS011;9296;48.084;16.352;2023-02-01T07:36:42;3.42;;;2.58;;
18340;SDS011;9296;48.084;16.352;2023-02-01T07:39:09;3.20;;;2.30;;
18340;SDS011;9296;48.084;16.352;2023-02-01T07:41:37;4.53;;;2.70;;
18340;SDS011;9296;48.084;16.352;2023-02-01T07:44:05;3.05;;;2.20;;
18340;SDS011;9296;48.084;16.352;2023-02-01T07:46:32;3.83;;;2.72;;
18340;SDS011;9296;48.084;16.352;2023-02-01T07:49:17;3.03;;;2.55;;
18340;SDS011;9296;48.084;16.352;2023-02-01T07:51:44;5.38;;;2.50;;
18340;SDS011;9296;48.084;16.352;2023-02-01T07:54:12;4.78;;;2.28;;
18340;SDS011;9296;48.084;16.352;2023-02-01T07:56:40;5.20;;;2.67;;
18340;SDS011;9296;48.084;16.352;2023-02-01T07:59:07;3.92;;;2.75;;
18340;SDS011;9296;48.084;16.352;2023-02-01T08:01:36;5.03;;;2.55;;
18340;SDS011;9296;48.084;16.352;2023-02-01T08:04:02;4.10;;;2.90;;
18340;SDS011;9296;48.084;16.352;2023-02-01T08:06:30;5.40;;;2.95;;
18340;SDS011;9296;48.084;16.352;2023-02-01T08:08:58;4.25;;;2.67;;
18340;SDS011;9296;48.084;16.352;2023-02-01T08:11:26;3.78;;;2.60;;
18340;SDS011;9296;48.084;16.352;2023-02-01T08:13:54;3.22;;;2.35;;
18340;SDS011;9296;48.084;16.352;2023-02-01T08:16:22;2.85;;;2.40;;
18340;SDS011;9296;48.084;16.352;2023-02-01T08:18:50;3.38;;;2.33;;
18340;SDS011;9296;48.084;16.352;2023-02-01T08:21:18;4.72;;;2.20;;
18340;SDS011;9296;48.084;16.352;2023-02-01T08:23:47;3.08;;;2.50;;
18340;SDS011;9296;48.084;16.352;2023-02-01T08:26:15;3.47;;;2.15;;
18340;SDS011;9296;48.084;16.352;2023-02-01T08:28:43;3.40;;;2.35;;
18340;SDS011;9296;48.084;16.352;2023-02-01T08:31:13;3.20;;;2.47;;
18340;SDS011;9296;48.084;16.352;2023-02-01T08:36:44;3.25;;;2.50;;
18340;SDS011;9296;48.084;16.352;2023-02-01T08:39:12;3.78;;;2.35;;
18340;SDS011;9296;48.084;16.352;2023-02-01T08:41:39;4.05;;;2.75;;
18340;SDS011;9296;48.084;16.352;2023-02-01T08:44:07;4.95;;;2.33;;
18340;SDS011;9296;48.084;16.352;2023-02-01T08:46:35;2.85;;;2.33;;
18340;SDS011;9296;48.084;16.352;2023-02-01T08:51:50;3.30;;;2.35;;
18340;SDS011;9296;48.084;16.352;2023-02-01T08:54:17;3.08;;;2.30;;
18340;SDS011;9296;48.084;16.352;2023-02-01T08:56:44;2.97;;;2.38;;
18340;SDS011;9296;48.084;16.352;2023-02-01T08:59:12;6.45;;;3.55;;
18340;SDS011;9296;48.084;16.352;2023-02-01T09:01:40;3.63;;;2.60;;
18340;SDS011;9296;48.084;16.352;2023-02-01T09:07:11;2.75;;;2.33;;
18340;SDS011;9296;48.084;16.352;2023-02-01T09:09:39;3.05;;;2.33;;
18340;SDS011;9296;48.084;16.352;2023-02-01T09:12:06;3.15;;;2.22;;
18340;SDS011;9296;48.084;16.352;2023-02-01T09:14:33;3.50;;;2.60;;
18340;SDS011;9296;48.084;16.352;2023-02-01T09:17:02;3.13;;;2.45;;
18340;SDS011;9296;48.084;16.352;2023-02-01T09:22:33;4.10;;;2.30;;
18340;SDS011;9296;48.084;16.352;2023-02-01T09:25:01;3.05;;;2.42;;
18340;SDS011;9296;48.084;16.352;2023-02-01T09:27:28;3.15;;;2.50;;
18340;SDS011;9296;48.084;16.352;2023-02-01T09:29:55;2.90;;;2.42;;
18340;SDS011;9296;48.084;16.352;2023-02-01T09:32:24;4.28;;;2.50;;
18340;SDS011;9296;48.084;16.352;2023-02-01T09:34:51;4.30;;;2.60;;
18340;SDS011;9296;48.084;16.352;2023-02-01T09:37:19;3.67;;;2.53;;
18340;SDS011;9296;48.084;16.352;2023-02-01T09:39:46;2.78;;;2.20;;
18340;SDS011;9296;48.084;16.352;2023-02-01T09:42:16;4.25;;;2.70;;
18340;SDS011;9296;48.084;16.352;2023-02-01T09:44:53;3.00;;;2.00;;
18340;SDS011;9296;48.084;16.352;2023-02-01T09:47:24;3.00;;;1.88;;
18340;SDS011;9296;48.084;16.352;2023-02-01T09:52:57;4.88;;;2.25;;
18340;SDS011;9296;48.084;16.352;2023-02-01T09:55:34;2.10;;;1.90;;
18340;SDS011;9296;48.084;16.352;2023-02-01T09:58:02;2.25;;;1.90;;
18340;SDS011;9296;48.084;16.352;2023-02-01T10:00:33;1.80;;;1.50;;
18340;SDS011;9296;48.084;16.352;2023-02-01T10:09:25;2.47;;;1.73;;
18340;SDS011;9296;48.084;16.352;2023-02-01T10:12:04;2.85;;;1.90;;
18340;SDS011;9296;48.084;16.352;2023-02-01T10:14:43;3.35;;;1.90;;
18340;SDS011;9296;48.084;16.352;2023-02-01T10:17:14;2.75;;;1.83;;
18340;SDS011;9296;48.084;16.352;2023-02-01T10:19:46;2.63;;;1.90;;
18340;SDS011;9296;48.084;16.352;2023-02-01T10:22:19;2.85;;;1.92;;
18340;SDS011;9296;48.084;16.352;2023-02-01T10:24:52;2.25;;;1.90;;
18340;SDS011;9296;48.084;16.352;2023-02-01T10:27:23;3.08;;;1.77;;
18340;SDS011;9296;48.084;16.352;2023-02-01T10:29:55;1.67;;;1.45;;
18340;SDS011;9296;48.084;16.352;2023-02-01T10:32:24;1.90;;;1.65;;
18340;SDS011;9296;48.084;16.352;2023-02-01T10:37:58;2.15;;;1.70;;
18340;SDS011;9296;48.084;16.352;2023-02-01T10:40:29;2.90;;;1.60;;
18340;SDS011;9296;48.084;16.352;2023-02-01T10:42:56;3.78;;;1.83;;
18340;SDS011;9296;48.084;16.352;2023-02-01T10:45:24;1.95;;;1.70;;
18340;SDS011;9296;48.084;16.352;2023-02-01T10:47:53;2.50;;;1.80;;
18340;SDS011;9296;48.084;16.352;2023-02-01T10:53:44;2.50;;;1.98;;
18340;SDS011;9296;48.084;16.352;2023-02-01T10:56:18;2.30;;;1.60;;
18340;SDS011;9296;48.084;16.352;2023-02-01T10:58:48;2.28;;;1.60;;
18340;SDS011;9296;48.084;16.352;2023-02-01T11:01:17;1.92;;;1.73;;
18340;SDS011;9296;48.084;16.352;2023-02-01T11:09:38;2.20;;;1.65;;
18340;SDS011;9296;48.084;16.352;2023-02-01T11:12:20;1.63;;;1.50;;
18340;SDS011;9296;48.084;16.352;2023-02-01T11:14:49;2.13;;;1.60;;
18340;SDS011;9296;48.084;16.352;2023-02-01T11:17:21;1.90;;;1.67;;
18340;SDS011;9296;48.084;16.352;2023-02-01T11:22:54;2.90;;;2.05;;
18340;SDS011;9296;48.084;16.352;2023-02-01T11:25:22;2.33;;;1.95;;
18340;SDS011;9296;48.084;16.352;2023-02-01T11:27:52;3.38;;;2.00;;
18340;SDS011;9296;48.084;16.352;2023-02-01T11:30:22;2.83;;;1.88;;
18340;SDS011;9296;48.084;16.352;2023-02-01T11:32:52;3.40;;;2.10;;
18340;SDS011;9296;48.084;16.352;2023-02-01T11:35:20;4.25;;;1.90;;
18340;SDS011;9296;48.084;16.352;2023-02-01T11:37:50;2.30;;;1.90;;
18340;SDS011;9296;48.084;16.352;2023-02-01T11:40:23;2.55;;;1.77;;
18340;SDS011;9296;48.084;16.352;2023-02-01T11:42:54;3.20;;;2.35;;
18340;SDS011;9296;48.084;16.352;2023-02-01T11:45:24;4.22;;;2.05;;
18340;SDS011;9296;48.084;16.352;2023-02-01T11:47:53;3.15;;;2.22;;
18340;SDS011;9296;48.084;16.352;2023-02-01T11:53:26;3.55;;;2.17;;
18340;SDS011;9296;48.084;16.352;2023-02-01T11:56:00;4.25;;;2.30;;
18340;SDS011;9296;48.084;16.352;2023-02-01T11:58:35;4.90;;;2.53;;
18340;SDS011;9296;48.084;16.352;2023-02-01T12:01:13;2.55;;;2.20;;
18340;SDS011;9296;48.084;16.352;2023-02-01T12:06:49;6.45;;;3.55;;
18340;SDS011;9296;48.084;16.352;2023-02-01T12:09:21;4.40;;;2.53;;
18340;SDS011;9296;48.084;16.352;2023-02-01T12:11:53;4.75;;;2.78;;
18340;SDS011;9296;48.084;16.352;2023-02-01T12:14:31;4.32;;;2.78;;
18340;SDS011;9296;48.084;16.352;2023-02-01T12:17:08;4.43;;;3.20;;
18340;SDS011;9296;48.084;16.352;2023-02-01T12:22:46;2.42;;;1.98;;
18340;SDS011;9296;48.084;16.352;2023-02-01T12:25:20;2.10;;;1.42;;
18340;SDS011;9296;48.084;16.352;2023-02-01T12:30:44;5.85;;;2.70;;
18340;SDS011;9296;48.084;16.352;2023-02-01T12:33:15;3.10;;;1.58;;
18340;SDS011;9296;48.084;16.352;2023-02-01T12:35:48;2.63;;;1.77;;
18340;SDS011;9296;48.084;16.352;2023-02-01T12:38:20;3.03;;;1.77;;
18340;SDS011;9296;48.084;16.352;2023-02-01T12:40:55;3.47;;;1.67;;
18340;SDS011;9296;48.084;16.352;2023-02-01T12:43:25;2.28;;;1.58;;
18340;SDS011;9296;48.084;16.352;2023-02-01T12:46:02;3.38;;;1.92;;
18340;SDS011;9296;48.084;16.352;2023-02-01T12:48:31;2.53;;;1.80;;
18340;SDS011;9296;48.084;16.352;2023-02-01T12:51:18;2.35;;;1.50;;
18340;SDS011;9296;48.084;16.352;2023-02-01T12:53:49;2.40;;;1.80;;
18340;SDS011;9296;48.084;16.352;2023-02-01T12:56:19;3.40;;;1.80;;
18340;SDS011;9296;48.084;16.352;2023-02-01T12:58:48;2.13;;;1.40;;
18340;SDS011;9296;48.084;16.352;2023-02-01T13:01:20;1.50;;;1.30;;
18340;SDS011;9296;48.084;16.352;2023-02-01T13:03:53;2.60;;;1.20;;
18340;SDS011;9296;48.084;16.352;2023-02-01T13:06:22;1.73;;;1.30;;
18340;SDS011;9296;48.084;16.352;2023-02-01T13:08:52;2.38;;;1.67;;
18340;SDS011;9296;48.084;16.352;2023-02-01T13:11:22;2.15;;;1.25;;
18340;SDS011;9296;48.084;16.352;2023-02-01T13:13:53;2.58;;;1.70;;
18340;SDS011;9296;48.084;16.352;2023-02-01T13:16:25;2.35;;;1.63;;
18340;SDS011;9296;48.084;16.352;2023-02-01T13:21:45;3.92;;;1.60;;
18340;SDS011;9296;48.084;16.352;2023-02-01T13:24:17;3.22;;;1.20;;
18340;SDS011;9296;48.084;16.352;2023-02-01T13:26:48;2.00;;;1.67;;
18340;SDS011;9296;48.084;16.352;2023-02-01T13:29:15;1.75;;;1.33;;
18340;SDS011;9296;48.084;16.352;2023-02-01T13:31:54;3.30;;;1.38;;
18340;SDS011;9296;48.084;16.352;2023-02-01T13:37:31;1.95;;;1.38;;
18340;SDS011;9296;48.084;16.352;2023-02-01T13:40:16;2.33;;;1.30;;
18340;SDS011;9296;48.084;16.352;2023-02-01T13:42:46;2.55;;;1.70;;
18340;SDS011;9296;48.084;16.352;2023-02-01T13:45:15;1.98;;;1.50;;
18340;SDS011;9296;48.084;16.352;2023-02-01T13:47:47;6.90;;;3.88;;
18340;SDS011;9296;48.084;16.352;2023-02-01T13:50:20;3.60;;;2.08;;
18340;SDS011;9296;48.084;16.352;2023-02-01T13:52:51;2.75;;;1.23;;
18340;SDS011;9296;48.084;16.352;2023-02-01T13:55:26;2.33;;;1.40;;
18340;SDS011;9296;48.084;16.352;2023-02-01T13:57:59;3.00;;;1.83;;
18340;SDS011;9296;48.084;16.352;2023-02-01T14:00:28;2.97;;;1.60;;
18340;SDS011;9296;48.084;16.352;2023-02-01T14:09:05;2.85;;;1.10;;
18340;SDS011;9296;48.084;16.352;2023-02-01T14:11:36;1.67;;;0.90;;
18340;SDS011;9296;48.084;16.352;2023-02-01T14:22:36;1.02;;;0.57;;
18340;SDS011;9296;48.084;16.352;2023-02-01T14:25:14;0.47;;;0.47;;
18340;SDS011;9296;48.084;16.352;2023-02-01T14:27:43;0.90;;;0.40;;
18340;SDS011;9296;48.084;16.352;2023-02-01T14:30:11;0.40;;;0.30;;
18340;SDS011;9296;48.084;16.352;2023-02-01T14:32:40;0.60;;;0.40;;
18340;SDS011;9296;48.084;16.352;2023-02-01T14:44:24;0.40;;;0.40;;
18340;SDS011;9296;48.084;16.352;2023-02-01T14:49:38;0.50;;;0.50;;
18340;SDS011;9296;48.084;16.352;2023-02-01T14:52:09;0.68;;;0.60;;
18340;SDS011;9296;48.084;16.352;2023-02-01T14:54:39;1.48;;;0.90;;
18340;SDS011;9296;48.084;16.352;2023-02-01T14:57:10;1.95;;;0.90;;
18340;SDS011;9296;48.084;16.352;2023-02-01T14:59:42;1.42;;;1.17;;
18340;SDS011;9296;48.084;16.352;2023-02-01T15:02:18;1.65;;;1.15;;
18340;SDS011;9296;48.084;16.352;2023-02-01T15:04:50;1.55;;;0.95;;
18340;SDS011;9296;48.084;16.352;2023-02-01T15:07:20;2.38;;;1.20;;
18340;SDS011;9296;48.084;16.352;2023-02-01T15:09:49;2.38;;;1.67;;
18340;SDS011;9296;48.084;16.352;2023-02-01T15:12:17;3.03;;;1.70;;
18340;SDS011;9296;48.084;16.352;2023-02-01T15:15:05;4.30;;;2.20;;
18340;SDS011;9296;48.084;16.352;2023-02-01T15:17:36;2.38;;;1.65;;
18340;SDS011;9296;48.084;16.352;2023-02-01T15:20:12;4.32;;;2.42;;
18340;SDS011;9296;48.084;16.352;2023-02-01T15:22:39;4.70;;;1.92;;
18340;SDS011;9296;48.084;16.352;2023-02-01T15:25:17;2.65;;;1.40;;
18340;SDS011;9296;48.084;16.352;2023-02-01T15:27:45;3.88;;;2.00;;
18340;SDS011;9296;48.084;16.352;2023-02-01T15:30:17;2.33;;;1.40;;
18340;SDS011;9296;48.084;16.352;2023-02-01T15:32:45;3.92;;;1.70;;
18340;SDS011;9296;48.084;16.352;2023-02-01T15:35:31;4.22;;;1.88;;
18340;SDS011;9296;48.084;16.352;2023-02-01T15:40:52;2.63;;;1.30;;
18340;SDS011;9296;48.084;16.352;2023-02-01T15:43:19;2.05;;;1.33;;
18340;SDS011;9296;48.084;16.352;2023-02-01T15:45:49;4.90;;;1.25;;
18340;SDS011;9296;48.084;16.352;2023-02-01T15:48:20;4.78;;;1.60;;
18340;SDS011;9296;48.084;16.352;2023-02-01T15:53:35;3.25;;;1.30;;
18340;SDS011;9296;48.084;16.352;2023-02-01T15:56:03;2.95;;;1.42;;
18340;SDS011;9296;48.084;16.352;2023-02-01T15:58:31;2.90;;;1.13;;
18340;SDS011;9296;48.084;16.352;2023-02-01T16:01:01;2.85;;;1.02;;
18340;SDS011;9296;48.084;16.352;2023-02-01T16:03:34;4.93;;;1.38;;
18340;SDS011;9296;48.084;16.352;2023-02-01T16:06:02;2.78;;;1.20;;
18340;SDS011;9296;48.084;16.352;2023-02-01T16:08:30;2.33;;;1.27;;
18340;SDS011;9296;48.084;16.352;2023-02-01T16:11:00;4.68;;;1.42;;
18340;SDS011;9296;48.084;16.352;2023-02-01T16:13:28;3.67;;;1.65;;
18340;SDS011;9296;48.084;16.352;2023-02-01T16:15:55;3.13;;;1.40;;
18340;SDS011;9296;48.084;16.352;2023-02-01T16:18:23;3.10;;;1.58;;
18340;SDS011;9296;48.084;16.352;2023-02-01T16:24:06;3.25;;;1.42;;
18340;SDS011;9296;48.084;16.352;2023-02-01T16:26:34;3.10;;;1.38;;
18340;SDS011;9296;48.084;16.352;2023-02-01T16:29:02;5.55;;;1.65;;
18340;SDS011;9296;48.084;16.352;2023-02-01T16:31:32;5.90;;;1.80;;
18340;SDS011;9296;48.084;16.352;2023-02-01T16:34:02;4.07;;;1.60;;
18340;SDS011;9296;48.084;16.352;2023-02-01T16:39:33;3.90;;;1.65;;
18340;SDS011;9296;48.084;16.352;2023-02-01T16:42:00;2.95;;;1.77;;
18340;SDS011;9296;48.084;16.352;2023-02-01T16:44:32;3.50;;;1.70;;
18340;SDS011;9296;48.084;16.352;2023-02-01T16:46:59;3.53;;;1.75;;
18340;SDS011;9296;48.084;16.352;2023-02-01T16:49:27;4.80;;;1.95;;
18340;SDS011;9296;48.084;16.352;2023-02-01T16:54:58;4.38;;;2.33;;
18340;SDS011;9296;48.084;16.352;2023-02-01T16:57:25;5.88;;;2.58;;
18340;SDS011;9296;48.084;16.352;2023-02-01T16:59:54;4.78;;;2.83;;
18340;SDS011;9296;48.084;16.352;2023-02-01T17:02:21;6.20;;;3.13;;
18340;SDS011;9296;48.084;16.352;2023-02-01T17:07:51;5.00;;;2.67;;
18340;SDS011;9296;48.084;16.352;2023-02-01T17:10:21;4.45;;;2.35;;
18340;SDS011;9296;48.084;16.352;2023-02-01T17:12:49;3.38;;;2.22;;
18340;SDS011;9296;48.084;16.352;2023-02-01T17:15:16;4.15;;;2.28;;
18340;SDS011;9296;48.084;16.352;2023-02-01T17:17:44;5.60;;;2.55;;
18340;SDS011;9296;48.084;16.352;2023-02-01T17:20:16;3.83;;;2.20;;
18340;SDS011;9296;48.084;16.352;2023-02-01T17:22:44;4.50;;;2.60;;
18340;SDS011;9296;48.084;16.352;2023-02-01T17:25:15;4.82;;;2.50;;
18340;SDS011;9296;48.084;16.352;2023-02-01T17:27:42;3.65;;;2.15;;
18340;SDS011;9296;48.084;16.352;2023-02-01T17:30:10;3.83;;;2.47;;
18340;SDS011;9296;48.084;16.352;2023-02-01T17:32:38;5.45;;;2.53;;
18340;SDS011;9296;48.084;16.352;2023-02-01T17:35:05;5.90;;;3.00;;
18340;SDS011;9296;48.084;16.352;2023-02-01T17:37:33;4.55;;;2.58;;
18340;SDS011;9296;48.084;16.352;2023-02-01T17:40:00;5.70;;;2.38;;
18340;SDS011;9296;48.084;16.352;2023-02-01T17:42:29;3.85;;;2.45;;
18340;SDS011;9296;48.084;16.352;2023-02-01T17:44:57;3.67;;;1.98;;
18340;SDS011;9296;48.084;16.352;2023-02-01T17:47:25;3.67;;;2.58;;
18340;SDS011;9296;48.084;16.352;2023-02-01T17:49:53;4.15;;;2.65;;
18340;SDS011;9296;48.084;16.352;2023-02-01T17:55:42;5.68;;;2.92;;
18340;SDS011;9296;48.084;16.352;2023-02-01T17:58:13;4.95;;;2.80;;
18340;SDS011;9296;48.084;16.352;2023-02-01T18:00:42;4.32;;;2.55;;
18340;SDS011;9296;48.084;16.352;2023-02-01T18:03:16;5.38;;;2.70;;
18340;SDS011;9296;48.084;16.352;2023-02-01T18:05:46;5.65;;;2.67;;
18340;SDS011;9296;48.084;16.352;2023-02-01T18:08:15;6.63;;;2.95;;
18340;SDS011;9296;48.084;16.352;2023-02-01T18:10:42;6.57;;;3.05;;
18340;SDS011;9296;48.084;16.352;2023-02-01T18:13:10;7.18;;;3.22;;